sensor_id;sensor_type;location;lat;lon;timestamp;P1;durP1;ratioP1;P2;durP2;ratioP2
29838;SDS011;18669;53.356;-1.464;2022-08-06T00:00:01;39.65;;;21.25;;
29838;SDS011;18669;53.356;-1.464;2022-08-06T00:02:30;49.38;;;27.55;;
29838;SDS011;18669;53.356;-1.464;2022-08-06T00:04:59;51.65;;;28.98;;
29838;SDS011;18669;53.356;-1.464;2022-08-06T00:07:27;39.85;;;21.70;;
29838;SDS011;18669;53.356;-1.464;2022-08-06T00:09:53;32.28;;;17.45;;
29838;SDS011;18669;53.356;-1.464;2022-08-06T00:12:22;27.67;;;14.20;;
29838;SDS011;18669;53.356;-1.464;2022-08-06T00:17:14;19.23;;;10.30;;
29838;SDS011;18669;53.356;-1.464;2022-08-06T00:22:06;25.02;;;10.52;;
29838;SDS011;18669;53.356;-1.464;2022-08-06T00:26:58;14.13;;;8.55;;
29838;SDS011;18669;53.356;-1.464;2022-08-06T00:29:24;26.42;;;14.70;;
29838;SDS011;18669;53.356;-1.464;2022-08-06T00:34:16;18.02;;;9.52;;
29838;SDS011;18669;53.356;-1.464;2022-08-06T00:39:08;20.88;;;9.98;;
29838;SDS011;18669;53.356;-1.464;2022-08-06T00:41:34;17.23;;;8.65;;
29838;SDS011;18669;53.356;-1.464;2022-08-06T00:44:01;22.83;;;10.80;;
29838;SDS011;18669;53.356;-1.464;2022-08-06T00:46:27;32.72;;;12.10;;
29838;SDS011;18669;53.356;-1.464;2022-08-06T00:48:53;20.65;;;9.82;;
29838;SDS011;18669;53.356;-1.464;2022-08-06T00:53:52;14.10;;;7.40;;
29838;SDS011;18669;53.356;-1.464;2022-08-06T00:56:18;12.38;;;7.82;;
29838;SDS011;18669;53.356;-1.464;2022-08-06T01:01:11;13.20;;;7.03;;
29838;SDS011;18669;53.356;-1.464;2022-08-06T01:03:37;19.80;;;8.40;;
29838;SDS011;18669;53.356;-1.464;2022-08-06T01:08:30;16.07;;;7.93;;
29838;SDS011;18669;53.356;-1.464;2022-08-06T01:13:22;13.13;;;6.75;;
29838;SDS011;18669;53.356;-1.464;2022-08-06T01:15:56;15.55;;;7.53;;
29838;SDS011;18669;53.356;-1.464;2022-08-06T01:18:31;13.88;;;7.20;;
29838;SDS011;18669;53.356;-1.464;2022-08-06T01:21:13;13.30;;;7.68;;
29838;SDS011;18669;53.356;-1.464;2022-08-06T01:30:17;13.18;;;7.82;;
29838;SDS011;18669;53.356;-1.464;2022-08-06T01:35:43;12.65;;;7.07;;
29838;SDS011;18669;53.356;-1.464;2022-08-06T01:38:23;13.00;;;6.85;;
29838;SDS011;18669;53.356;-1.464;2022-08-06T01:40:55;14.05;;;6.82;;
29838;SDS011;18669;53.356;-1.464;2022-08-06T01:43:25;15.45;;;7.95;;
29838;SDS011;18669;53.356;-1.464;2022-08-06T01:45:55;11.98;;;7.32;;
29838;SDS011;18669;53.356;-1.464;2022-08-06T01:48:23;15.65;;;7.60;;
29838;SDS011;18669;53.356;-1.464;2022-08-06T01:50:52;16.75;;;8.80;;
29838;SDS011;18669;53.356;-1.464;2022-08-06T01:53:30;14.63;;;7.35;;
29838;SDS011;18669;53.356;-1.464;2022-08-06T01:56:01;21.10;;;7.32;;
29838;SDS011;18669;53.356;-1.464;2022-08-06T01:58:30;10.90;;;6.28;;
29838;SDS011;18669;53.356;-1.464;2022-08-06T02:01:01;11.05;;;6.57;;
29838;SDS011;18669;53.356;-1.464;2022-08-06T02:03:46;11.32;;;6.15;;
29838;SDS011;18669;53.356;-1.464;2022-08-06T02:06:17;13.48;;;6.78;;
29838;SDS011;18669;53.356;-1.464;2022-08-06T02:08:46;9.70;;;5.95;;
29838;SDS011;18669;53.356;-1.464;2022-08-06T02:11:14;13.40;;;7.32;;
29838;SDS011;18669;53.356;-1.464;2022-08-06T02:13:41;11.63;;;6.32;;
29838;SDS011;18669;53.356;-1.464;2022-08-06T02:16:09;12.25;;;7.03;;
29838;SDS011;18669;53.356;-1.464;2022-08-06T02:18:39;12.23;;;6.53;;
29838;SDS011;18669;53.356;-1.464;2022-08-06T02:21:12;10.82;;;6.22;;
29838;SDS011;18669;53.356;-1.464;2022-08-06T02:26:12;15.77;;;7.13;;
29838;SDS011;18669;53.356;-1.464;2022-08-06T02:28:41;15.05;;;7.55;;
29838;SDS011;18669;53.356;-1.464;2022-08-06T02:31:09;30.08;;;13.95;;
29838;SDS011;18669;53.356;-1.464;2022-08-06T02:33:36;15.45;;;7.88;;
29838;SDS011;18669;53.356;-1.464;2022-08-06T02:38:40;24.70;;;13.27;;
29838;SDS011;18669;53.356;-1.464;2022-08-06T02:41:22;11.10;;;6.20;;
29838;SDS011;18669;53.356;-1.464;2022-08-06T02:43:54;23.85;;;10.80;;
29838;SDS011;18669;53.356;-1.464;2022-08-06T02:46:28;10.27;;;5.82;;
29838;SDS011;18669;53.356;-1.464;2022-08-06T02:49:15;12.00;;;7.15;;
29838;SDS011;18669;53.356;-1.464;2022-08-06T02:51:45;11.25;;;7.03;;
29838;SDS011;18669;53.356;-1.464;2022-08-06T02:54:22;7.40;;;4.55;;
29838;SDS011;18669;53.356;-1.464;2022-08-06T02:57:17;12.45;;;6.18;;
29838;SDS011;18669;53.356;-1.464;2022-08-06T02:59:49;11.18;;;5.15;;
29838;SDS011;18669;53.356;-1.464;2022-08-06T03:02:19;12.93;;;5.85;;
29838;SDS011;18669;53.356;-1.464;2022-08-06T03:04:49;10.88;;;5.63;;
29838;SDS011;18669;53.356;-1.464;2022-08-06T03:07:19;10.25;;;6.07;;
29838;SDS011;18669;53.356;-1.464;2022-08-06T03:09:47;13.02;;;5.10;;
29838;SDS011;18669;53.356;-1.464;2022-08-06T03:12:15;12.98;;;5.28;;
29838;SDS011;18669;53.356;-1.464;2022-08-06T03:14:43;8.77;;;5.80;;
29838;SDS011;18669;53.356;-1.464;2022-08-06T03:17:11;11.30;;;5.05;;
29838;SDS011;18669;53.356;-1.464;2022-08-06T03:19:39;14.00;;;7.38;;
29838;SDS011;18669;53.356;-1.464;2022-08-06T03:22:09;13.82;;;6.40;;
29838;SDS011;18669;53.356;-1.464;2022-08-06T03:24:37;14.23;;;6.75;;
29838;SDS011;18669;53.356;-1.464;2022-08-06T03:27:05;11.07;;;5.80;;
29838;SDS011;18669;53.356;-1.464;2022-08-06T03:29:34;9.93;;;6.05;;
29838;SDS011;18669;53.356;-1.464;2022-08-06T03:32:02;15.70;;;8.70;;
29838;SDS011;18669;53.356;-1.464;2022-08-06T03:34:30;13.93;;;7.97;;
29838;SDS011;18669;53.356;-1.464;2022-08-06T03:36:58;23.23;;;10.38;;
29838;SDS011;18669;53.356;-1.464;2022-08-06T03:39:27;15.77;;;7.20;;
29838;SDS011;18669;53.356;-1.464;2022-08-06T03:41:56;13.48;;;6.60;;
29838;SDS011;18669;53.356;-1.464;2022-08-06T03:44:22;13.32;;;6.95;;
29838;SDS011;18669;53.356;-1.464;2022-08-06T03:49:22;12.55;;;4.70;;
29838;SDS011;18669;53.356;-1.464;2022-08-06T03:51:52;9.88;;;4.65;;
29838;SDS011;18669;53.356;-1.464;2022-08-06T03:54:30;12.40;;;4.80;;
29838;SDS011;18669;53.356;-1.464;2022-08-06T03:57:01;7.38;;;4.53;;
29838;SDS011;18669;53.356;-1.464;2022-08-06T03:59:30;9.13;;;4.53;;
29838;SDS011;18669;53.356;-1.464;2022-08-06T04:01:59;10.57;;;4.05;;
29838;SDS011;18669;53.356;-1.464;2022-08-06T04:04:27;7.85;;;4.03;;
29838;SDS011;18669;53.356;-1.464;2022-08-06T04:06:57;10.18;;;5.75;;
29838;SDS011;18669;53.356;-1.464;2022-08-06T04:09:25;11.90;;;4.18;;
29838;SDS011;18669;53.356;-1.464;2022-08-06T04:11:53;11.05;;;4.70;;
29838;SDS011;18669;53.356;-1.464;2022-08-06T04:14:20;7.13;;;4.68;;
29838;SDS011;18669;53.356;-1.464;2022-08-06T04:16:47;8.98;;;4.15;;
29838;SDS011;18669;53.356;-1.464;2022-08-06T04:19:14;8.32;;;3.85;;
29838;SDS011;18669;53.356;-1.464;2022-08-06T04:21:44;11.65;;;5.13;;
29838;SDS011;18669;53.356;-1.464;2022-08-06T04:24:12;12.80;;;4.85;;
29838;SDS011;18669;53.356;-1.464;2022-08-06T04:26:38;10.85;;;6.03;;
29838;SDS011;18669;53.356;-1.464;2022-08-06T04:29:08;11.88;;;4.28;;
29838;SDS011;18669;53.356;-1.464;2022-08-06T04:31:38;13.35;;;5.38;;
29838;SDS011;18669;53.356;-1.464;2022-08-06T04:34:07;12.48;;;4.35;;
29838;SDS011;18669;53.356;-1.464;2022-08-06T04:36:35;11.30;;;5.53;;
29838;SDS011;18669;53.356;-1.464;2022-08-06T04:39:01;15.05;;;7.25;;
29838;SDS011;18669;53.356;-1.464;2022-08-06T04:43:54;10.57;;;4.75;;
29838;SDS011;18669;53.356;-1.464;2022-08-06T04:48:47;11.45;;;5.80;;
29838;SDS011;18669;53.356;-1.464;2022-08-06T04:51:13;10.48;;;5.00;;
29838;SDS011;18669;53.356;-1.464;2022-08-06T04:53:40;10.02;;;3.83;;
29838;SDS011;18669;53.356;-1.464;2022-08-06T04:56:07;8.65;;;3.80;;
29838;SDS011;18669;53.356;-1.464;2022-08-06T04:58:34;12.95;;;4.88;;
29838;SDS011;18669;53.356;-1.464;2022-08-06T05:01:01;9.60;;;4.97;;
29838;SDS011;18669;53.356;-1.464;2022-08-06T05:03:28;12.90;;;4.40;;
29838;SDS011;18669;53.356;-1.464;2022-08-06T05:06:08;10.90;;;6.22;;
29838;SDS011;18669;53.356;-1.464;2022-08-06T05:08:39;11.77;;;4.95;;
29838;SDS011;18669;53.356;-1.464;2022-08-06T05:13:50;7.20;;;4.13;;
29838;SDS011;18669;53.356;-1.464;2022-08-06T05:16:20;7.53;;;4.30;;
29838;SDS011;18669;53.356;-1.464;2022-08-06T05:18:51;9.52;;;5.50;;
29838;SDS011;18669;53.356;-1.464;2022-08-06T05:21:22;11.07;;;4.85;;
29838;SDS011;18669;53.356;-1.464;2022-08-06T05:23:53;11.90;;;6.25;;
29838;SDS011;18669;53.356;-1.464;2022-08-06T05:26:20;10.00;;;3.85;;
29838;SDS011;18669;53.356;-1.464;2022-08-06T05:28:47;7.55;;;4.28;;
29838;SDS011;18669;53.356;-1.464;2022-08-06T05:31:14;9.80;;;4.15;;
29838;SDS011;18669;53.356;-1.464;2022-08-06T05:36:07;9.38;;;3.30;;
29838;SDS011;18669;53.356;-1.464;2022-08-06T05:38:36;11.80;;;4.18;;
29838;SDS011;18669;53.356;-1.464;2022-08-06T05:41:10;7.55;;;3.25;;
29838;SDS011;18669;53.356;-1.464;2022-08-06T05:43:37;6.10;;;3.22;;
29838;SDS011;18669;53.356;-1.464;2022-08-06T05:46:07;13.48;;;4.05;;
29838;SDS011;18669;53.356;-1.464;2022-08-06T05:48:40;9.15;;;3.88;;
29838;SDS011;18669;53.356;-1.464;2022-08-06T05:51:12;9.07;;;3.30;;
29838;SDS011;18669;53.356;-1.464;2022-08-06T05:53:52;7.45;;;3.63;;
29838;SDS011;18669;53.356;-1.464;2022-08-06T05:56:23;10.45;;;3.65;;
29838;SDS011;18669;53.356;-1.464;2022-08-06T05:58:59;7.72;;;3.38;;
29838;SDS011;18669;53.356;-1.464;2022-08-06T06:01:29;13.25;;;4.35;;
29838;SDS011;18669;53.356;-1.464;2022-08-06T06:03:58;9.63;;;3.30;;
29838;SDS011;18669;53.356;-1.464;2022-08-06T06:06:25;7.38;;;3.17;;
29838;SDS011;18669;53.356;-1.464;2022-08-06T06:08:52;11.05;;;3.78;;
29838;SDS011;18669;53.356;-1.464;2022-08-06T06:11:19;9.40;;;3.40;;
29838;SDS011;18669;53.356;-1.464;2022-08-06T06:13:46;10.30;;;3.90;;
29838;SDS011;18669;53.356;-1.464;2022-08-06T06:16:24;10.90;;;3.97;;
29838;SDS011;18669;53.356;-1.464;2022-08-06T06:19:44;11.18;;;3.42;;
29838;SDS011;18669;53.356;-1.464;2022-08-06T06:21:59;5.45;;;3.47;;
29838;SDS011;18669;53.356;-1.464;2022-08-06T06:24:49;6.40;;;3.30;;
29838;SDS011;18669;53.356;-1.464;2022-08-06T06:29:57;5.13;;;2.80;;
29838;SDS011;18669;53.356;-1.464;2022-08-06T06:32:38;7.38;;;3.03;;
29838;SDS011;18669;53.356;-1.464;2022-08-06T06:35:18;6.60;;;3.08;;
29838;SDS011;18669;53.356;-1.464;2022-08-06T06:38:09;12.20;;;3.55;;
29838;SDS011;18669;53.356;-1.464;2022-08-06T06:40:49;6.82;;;3.33;;
29838;SDS011;18669;53.356;-1.464;2022-08-06T06:43:32;10.40;;;2.65;;
29838;SDS011;18669;53.356;-1.464;2022-08-06T06:49:09;6.07;;;2.67;;
29838;SDS011;18669;53.356;-1.464;2022-08-06T06:51:48;8.50;;;2.88;;
29838;SDS011;18669;53.356;-1.464;2022-08-06T06:54:30;3.13;;;2.42;;
29838;SDS011;18669;53.356;-1.464;2022-08-06T06:57:00;3.75;;;2.67;;
29838;SDS011;18669;53.356;-1.464;2022-08-06T06:59:32;8.43;;;2.85;;
29838;SDS011;18669;53.356;-1.464;2022-08-06T07:02:01;7.15;;;2.50;;
29838;SDS011;18669;53.356;-1.464;2022-08-06T07:04:29;6.93;;;2.30;;
29838;SDS011;18669;53.356;-1.464;2022-08-06T07:06:57;10.05;;;2.90;;
29838;SDS011;18669;53.356;-1.464;2022-08-06T07:09:25;4.75;;;2.50;;
29838;SDS011;18669;53.356;-1.464;2022-08-06T07:11:55;8.73;;;2.20;;
29838;SDS011;18669;53.356;-1.464;2022-08-06T07:14:24;8.25;;;2.42;;
29838;SDS011;18669;53.356;-1.464;2022-08-06T07:16:52;9.75;;;2.25;;
29838;SDS011;18669;53.356;-1.464;2022-08-06T07:19:21;8.75;;;2.20;;
29838;SDS011;18669;53.356;-1.464;2022-08-06T07:21:49;8.32;;;2.00;;
29838;SDS011;18669;53.356;-1.464;2022-08-06T07:24:16;5.53;;;2.10;;
29838;SDS011;18669;53.356;-1.464;2022-08-06T07:26:46;12.93;;;2.58;;
29838;SDS011;18669;53.356;-1.464;2022-08-06T07:29:14;9.48;;;2.33;;
29838;SDS011;18669;53.356;-1.464;2022-08-06T07:31:41;5.93;;;2.15;;
29838;SDS011;18669;53.356;-1.464;2022-08-06T07:34:09;4.75;;;2.28;;
29838;SDS011;18669;53.356;-1.464;2022-08-06T07:36:42;7.88;;;2.15;;
29838;SDS011;18669;53.356;-1.464;2022-08-06T07:39:13;8.57;;;2.28;;
29838;SDS011;18669;53.356;-1.464;2022-08-06T07:41:44;3.20;;;2.10;;
29838;SDS011;18669;53.356;-1.464;2022-08-06T07:44:12;7.03;;;2.47;;
29838;SDS011;18669;53.356;-1.464;2022-08-06T07:46:41;9.18;;;2.00;;
29838;SDS011;18669;53.356;-1.464;2022-08-06T07:49:09;5.55;;;2.53;;
29838;SDS011;18669;53.356;-1.464;2022-08-06T07:51:39;6.35;;;2.20;;
29838;SDS011;18669;53.356;-1.464;2022-08-06T07:54:08;8.13;;;2.03;;
29838;SDS011;18669;53.356;-1.464;2022-08-06T07:56:37;5.18;;;2.17;;
29838;SDS011;18669;53.356;-1.464;2022-08-06T07:59:04;4.07;;;1.95;;
29838;SDS011;18669;53.356;-1.464;2022-08-06T08:01:35;8.75;;;2.33;;
29838;SDS011;18669;53.356;-1.464;2022-08-06T08:04:04;7.20;;;2.00;;
29838;SDS011;18669;53.356;-1.464;2022-08-06T08:06:50;7.00;;;2.10;;
29838;SDS011;18669;53.356;-1.464;2022-08-06T08:09:18;5.70;;;2.03;;
29838;SDS011;18669;53.356;-1.464;2022-08-06T08:11:47;4.60;;;2.20;;
29838;SDS011;18669;53.356;-1.464;2022-08-06T08:14:17;7.60;;;2.20;;
29838;SDS011;18669;53.356;-1.464;2022-08-06T08:16:45;6.10;;;2.15;;
29838;SDS011;18669;53.356;-1.464;2022-08-06T08:19:25;3.25;;;1.90;;
29838;SDS011;18669;53.356;-1.464;2022-08-06T08:21:59;5.85;;;2.38;;
29838;SDS011;18669;53.356;-1.464;2022-08-06T08:24:27;4.88;;;2.30;;
29838;SDS011;18669;53.356;-1.464;2022-08-06T08:26:54;4.50;;;2.08;;
29838;SDS011;18669;53.356;-1.464;2022-08-06T08:29:21;4.90;;;2.25;;
29838;SDS011;18669;53.356;-1.464;2022-08-06T08:31:49;5.28;;;2.08;;
29838;SDS011;18669;53.356;-1.464;2022-08-06T08:34:16;4.22;;;2.33;;
29838;SDS011;18669;53.356;-1.464;2022-08-06T08:36:49;6.28;;;2.22;;
29838;SDS011;18669;53.356;-1.464;2022-08-06T08:39:15;5.85;;;2.20;;
29838;SDS011;18669;53.356;-1.464;2022-08-06T08:41:50;4.50;;;2.10;;
29838;SDS011;18669;53.356;-1.464;2022-08-06T08:44:24;3.67;;;1.73;;
29838;SDS011;18669;53.356;-1.464;2022-08-06T08:46:55;4.45;;;2.30;;
29838;SDS011;18669;53.356;-1.464;2022-08-06T08:49:27;5.32;;;2.13;;
29838;SDS011;18669;53.356;-1.464;2022-08-06T08:52:02;4.10;;;2.53;;
29838;SDS011;18669;53.356;-1.464;2022-08-06T08:54:33;5.43;;;1.80;;
29838;SDS011;18669;53.356;-1.464;2022-08-06T08:57:04;4.63;;;1.90;;
29838;SDS011;18669;53.356;-1.464;2022-08-06T08:59:31;6.07;;;2.00;;
29838;SDS011;18669;53.356;-1.464;2022-08-06T09:01:58;8.40;;;2.05;;
29838;SDS011;18669;53.356;-1.464;2022-08-06T09:04:26;3.63;;;1.45;;
29838;SDS011;18669;53.356;-1.464;2022-08-06T09:06:53;6.05;;;1.85;;
29838;SDS011;18669;53.356;-1.464;2022-08-06T09:09:19;5.75;;;2.20;;
29838;SDS011;18669;53.356;-1.464;2022-08-06T09:11:45;7.82;;;2.58;;
29838;SDS011;18669;53.356;-1.464;2022-08-06T09:14:12;4.47;;;2.00;;
29838;SDS011;18669;53.356;-1.464;2022-08-06T09:16:38;4.20;;;2.00;;
29838;SDS011;18669;53.356;-1.464;2022-08-06T09:19:05;6.72;;;2.15;;
29838;SDS011;18669;53.356;-1.464;2022-08-06T09:21:32;8.43;;;2.50;;
29838;SDS011;18669;53.356;-1.464;2022-08-06T09:23:58;6.53;;;2.15;;
29838;SDS011;18669;53.356;-1.464;2022-08-06T09:26:25;5.63;;;2.10;;
29838;SDS011;18669;53.356;-1.464;2022-08-06T09:28:51;4.00;;;2.08;;
29838;SDS011;18669;53.356;-1.464;2022-08-06T09:31:19;4.25;;;2.50;;
29838;SDS011;18669;53.356;-1.464;2022-08-06T09:34:03;3.88;;;2.13;;
29838;SDS011;18669;53.356;-1.464;2022-08-06T09:37:05;10.20;;;2.70;;
29838;SDS011;18669;53.356;-1.464;2022-08-06T09:39:34;5.38;;;2.50;;
29838;SDS011;18669;53.356;-1.464;2022-08-06T09:42:03;4.28;;;2.28;;
29838;SDS011;18669;53.356;-1.464;2022-08-06T09:44:29;4.82;;;2.30;;
29838;SDS011;18669;53.356;-1.464;2022-08-06T09:46:56;6.78;;;2.33;;
29838;SDS011;18669;53.356;-1.464;2022-08-06T09:49:24;7.03;;;2.53;;
29838;SDS011;18669;53.356;-1.464;2022-08-06T09:51:50;7.03;;;2.10;;
29838;SDS011;18669;53.356;-1.464;2022-08-06T09:54:16;5.07;;;2.00;;
29838;SDS011;18669;53.356;-1.464;2022-08-06T09:56:43;5.40;;;2.10;;
29838;SDS011;18669;53.356;-1.464;2022-08-06T09:59:10;5.15;;;2.42;;
29838;SDS011;18669;53.356;-1.464;2022-08-06T10:01:41;5.05;;;2.72;;
29838;SDS011;18669;53.356;-1.464;2022-08-06T10:04:27;4.72;;;2.20;;
29838;SDS011;18669;53.356;-1.464;2022-08-06T10:06:58;5.60;;;2.20;;
29838;SDS011;18669;53.356;-1.464;2022-08-06T10:09:26;11.38;;;2.50;;
29838;SDS011;18669;53.356;-1.464;2022-08-06T10:11:54;8.45;;;2.00;;
29838;SDS011;18669;53.356;-1.464;2022-08-06T10:14:31;4.57;;;2.30;;
29838;SDS011;18669;53.356;-1.464;2022-08-06T10:17:05;5.55;;;2.25;;
29838;SDS011;18669;53.356;-1.464;2022-08-06T10:19:32;4.45;;;2.25;;
29838;SDS011;18669;53.356;-1.464;2022-08-06T10:22:03;9.10;;;2.42;;
29838;SDS011;18669;53.356;-1.464;2022-08-06T10:24:39;6.32;;;2.45;;
29838;SDS011;18669;53.356;-1.464;2022-08-06T10:27:09;3.95;;;2.00;;
29838;SDS011;18669;53.356;-1.464;2022-08-06T10:29:39;3.85;;;1.90;;
29838;SDS011;18669;53.356;-1.464;2022-08-06T10:32:07;3.80;;;1.85;;
29838;SDS011;18669;53.356;-1.464;2022-08-06T10:34:36;5.00;;;1.67;;
29838;SDS011;18669;53.356;-1.464;2022-08-06T10:37:05;3.35;;;1.80;;
29838;SDS011;18669;53.356;-1.464;2022-08-06T10:39:34;3.90;;;1.83;;
29838;SDS011;18669;53.356;-1.464;2022-08-06T10:42:02;2.85;;;1.50;;
29838;SDS011;18669;53.356;-1.464;2022-08-06T10:44:32;6.40;;;1.73;;
29838;SDS011;18669;53.356;-1.464;2022-08-06T10:47:05;4.78;;;1.67;;
29838;SDS011;18669;53.356;-1.464;2022-08-06T10:49:32;4.28;;;1.60;;
29838;SDS011;18669;53.356;-1.464;2022-08-06T10:51:59;2.70;;;1.58;;
29838;SDS011;18669;53.356;-1.464;2022-08-06T10:54:26;3.55;;;1.67;;
29838;SDS011;18669;53.356;-1.464;2022-08-06T10:56:53;8.13;;;2.42;;
29838;SDS011;18669;53.356;-1.464;2022-08-06T10:59:20;4.68;;;1.90;;
29838;SDS011;18669;53.356;-1.464;2022-08-06T11:07:56;5.05;;;2.00;;
29838;SDS011;18669;53.356;-1.464;2022-08-06T11:10:14;5.53;;;2.20;;
29838;SDS011;18669;53.356;-1.464;2022-08-06T11:12:54;3.30;;;2.03;;
29838;SDS011;18669;53.356;-1.464;2022-08-06T11:15:24;5.28;;;2.08;;
29838;SDS011;18669;53.356;-1.464;2022-08-06T11:17:52;5.32;;;2.38;;
29838;SDS011;18669;53.356;-1.464;2022-08-06T11:23:02;7.22;;;2.85;;
29838;SDS011;18669;53.356;-1.464;2022-08-06T11:25:40;10.25;;;2.70;;
29838;SDS011;18669;53.356;-1.464;2022-08-06T11:28:15;4.32;;;2.30;;
29838;SDS011;18669;53.356;-1.464;2022-08-06T11:30:43;4.07;;;2.40;;
29838;SDS011;18669;53.356;-1.464;2022-08-06T11:36:04;7.32;;;2.38;;
29838;SDS011;18669;53.356;-1.464;2022-08-06T11:41:20;4.95;;;2.20;;
29838;SDS011;18669;53.356;-1.464;2022-08-06T11:46:27;6.07;;;2.17;;
29838;SDS011;18669;53.356;-1.464;2022-08-06T11:49:22;4.93;;;2.00;;
29838;SDS011;18669;53.356;-1.464;2022-08-06T11:57:32;5.60;;;2.85;;
29838;SDS011;18669;53.356;-1.464;2022-08-06T12:05:07;5.47;;;2.47;;
29838;SDS011;18669;53.356;-1.464;2022-08-06T12:13:51;9.43;;;2.85;;
29838;SDS011;18669;53.356;-1.464;2022-08-06T12:19:14;5.95;;;2.40;;
29838;SDS011;18669;53.356;-1.464;2022-08-06T12:21:40;5.43;;;2.70;;
29838;SDS011;18669;53.356;-1.464;2022-08-06T12:24:08;6.07;;;2.53;;
29838;SDS011;18669;53.356;-1.464;2022-08-06T12:26:35;14.10;;;2.67;;
29838;SDS011;18669;53.356;-1.464;2022-08-06T12:29:02;6.10;;;2.60;;
29838;SDS011;18669;53.356;-1.464;2022-08-06T12:31:31;9.07;;;2.78;;
29838;SDS011;18669;53.356;-1.464;2022-08-06T12:33:59;5.95;;;2.50;;
29838;SDS011;18669;53.356;-1.464;2022-08-06T12:36:28;4.65;;;2.55;;
29838;SDS011;18669;53.356;-1.464;2022-08-06T12:38:57;7.72;;;3.40;;
29838;SDS011;18669;53.356;-1.464;2022-08-06T12:41:31;9.07;;;3.05;;
29838;SDS011;18669;53.356;-1.464;2022-08-06T12:43:58;5.63;;;2.63;;
29838;SDS011;18669;53.356;-1.464;2022-08-06T12:46:24;7.10;;;2.78;;
29838;SDS011;18669;53.356;-1.464;2022-08-06T12:48:51;7.32;;;2.75;;
29838;SDS011;18669;53.356;-1.464;2022-08-06T12:51:17;5.10;;;2.70;;
29838;SDS011;18669;53.356;-1.464;2022-08-06T12:56:21;8.55;;;3.08;;
29838;SDS011;18669;53.356;-1.464;2022-08-06T12:58:49;9.50;;;3.13;;
29838;SDS011;18669;53.356;-1.464;2022-08-06T13:01:17;6.18;;;3.10;;
29838;SDS011;18669;53.356;-1.464;2022-08-06T13:03:46;5.93;;;3.20;;
29838;SDS011;18669;53.356;-1.464;2022-08-06T13:06:16;9.50;;;3.40;;
29838;SDS011;18669;53.356;-1.464;2022-08-06T13:08:46;7.68;;;3.10;;
29838;SDS011;18669;53.356;-1.464;2022-08-06T13:11:15;4.40;;;3.05;;
29838;SDS011;18669;53.356;-1.464;2022-08-06T13:13:46;6.50;;;3.20;;
29838;SDS011;18669;53.356;-1.464;2022-08-06T13:16:16;8.27;;;3.20;;
29838;SDS011;18669;53.356;-1.464;2022-08-06T13:19:02;6.72;;;3.40;;
29838;SDS011;18669;53.356;-1.464;2022-08-06T13:21:33;6.85;;;3.40;;
29838;SDS011;18669;53.356;-1.464;2022-08-06T13:24:01;10.40;;;3.53;;
29838;SDS011;18669;53.356;-1.464;2022-08-06T13:26:30;7.30;;;3.13;;
29838;SDS011;18669;53.356;-1.464;2022-08-06T13:31:38;8.75;;;3.35;;
29838;SDS011;18669;53.356;-1.464;2022-08-06T13:34:07;5.90;;;3.45;;
29838;SDS011;18669;53.356;-1.464;2022-08-06T13:36:36;11.77;;;3.55;;
29838;SDS011;18669;53.356;-1.464;2022-08-06T13:39:22;5.07;;;3.60;;
29838;SDS011;18669;53.356;-1.464;2022-08-06T13:42:00;7.22;;;3.95;;
29838;SDS011;18669;53.356;-1.464;2022-08-06T13:44:27;11.38;;;3.95;;
29838;SDS011;18669;53.356;-1.464;2022-08-06T13:46:59;12.32;;;3.55;;
29838;SDS011;18669;53.356;-1.464;2022-08-06T13:49:25;9.27;;;3.25;;
29838;SDS011;18669;53.356;-1.464;2022-08-06T13:51:51;7.72;;;3.08;;
29838;SDS011;18669;53.356;-1.464;2022-08-06T13:54:18;6.10;;;3.17;;
29838;SDS011;18669;53.356;-1.464;2022-08-06T13:56:45;4.57;;;2.70;;
29838;SDS011;18669;53.356;-1.464;2022-08-06T13:59:12;6.15;;;2.95;;
29838;SDS011;18669;53.356;-1.464;2022-08-06T14:01:38;4.25;;;3.28;;
29838;SDS011;18669;53.356;-1.464;2022-08-06T14:04:04;7.25;;;2.95;;
29838;SDS011;18669;53.356;-1.464;2022-08-06T14:06:30;5.35;;;2.67;;
29838;SDS011;18669;53.356;-1.464;2022-08-06T14:08:56;5.28;;;2.80;;
29838;SDS011;18669;53.356;-1.464;2022-08-06T14:11:22;6.32;;;2.70;;
29838;SDS011;18669;53.356;-1.464;2022-08-06T14:13:48;7.22;;;3.08;;
29838;SDS011;18669;53.356;-1.464;2022-08-06T14:16:14;6.22;;;2.72;;
29838;SDS011;18669;53.356;-1.464;2022-08-06T14:18:40;5.32;;;2.78;;
29838;SDS011;18669;53.356;-1.464;2022-08-06T14:21:06;6.90;;;2.80;;
29838;SDS011;18669;53.356;-1.464;2022-08-06T14:23:32;8.73;;;3.00;;
29838;SDS011;18669;53.356;-1.464;2022-08-06T14:25:58;7.70;;;2.70;;
29838;SDS011;18669;53.356;-1.464;2022-08-06T14:28:24;8.82;;;3.00;;
29838;SDS011;18669;53.356;-1.464;2022-08-06T14:30:51;4.43;;;2.38;;
29838;SDS011;18669;53.356;-1.464;2022-08-06T14:33:17;6.05;;;2.60;;
29838;SDS011;18669;53.356;-1.464;2022-08-06T14:35:43;4.05;;;2.58;;
29838;SDS011;18669;53.356;-1.464;2022-08-06T14:38:10;4.30;;;2.50;;
29838;SDS011;18669;53.356;-1.464;2022-08-06T14:40:38;4.68;;;2.40;;
29838;SDS011;18669;53.356;-1.464;2022-08-06T14:43:23;4.47;;;1.83;;
29838;SDS011;18669;53.356;-1.464;2022-08-06T14:46:08;6.43;;;2.20;;
29838;SDS011;18669;53.356;-1.464;2022-08-06T14:48:34;4.05;;;2.10;;
29838;SDS011;18669;53.356;-1.464;2022-08-06T14:51:00;4.72;;;2.25;;
29838;SDS011;18669;53.356;-1.464;2022-08-06T14:53:26;2.95;;;1.83;;
29838;SDS011;18669;53.356;-1.464;2022-08-06T14:55:52;4.28;;;1.88;;
29838;SDS011;18669;53.356;-1.464;2022-08-06T14:58:18;3.22;;;2.00;;
29838;SDS011;18669;53.356;-1.464;2022-08-06T15:00:44;8.07;;;1.83;;
29838;SDS011;18669;53.356;-1.464;2022-08-06T15:03:14;3.10;;;2.13;;
29838;SDS011;18669;53.356;-1.464;2022-08-06T15:05:41;7.45;;;2.20;;
29838;SDS011;18669;53.356;-1.464;2022-08-06T15:08:08;4.70;;;1.50;;
29838;SDS011;18669;53.356;-1.464;2022-08-06T15:10:34;2.72;;;1.55;;
29838;SDS011;18669;53.356;-1.464;2022-08-06T15:13:01;3.90;;;1.35;;
29838;SDS011;18669;53.356;-1.464;2022-08-06T15:15:28;2.72;;;1.42;;
29838;SDS011;18669;53.356;-1.464;2022-08-06T15:17:54;4.85;;;2.00;;
29838;SDS011;18669;53.356;-1.464;2022-08-06T15:20:20;4.18;;;1.55;;
29838;SDS011;18669;53.356;-1.464;2022-08-06T15:22:46;4.20;;;1.58;;
29838;SDS011;18669;53.356;-1.464;2022-08-06T15:25:12;6.60;;;1.58;;
29838;SDS011;18669;53.356;-1.464;2022-08-06T15:27:46;4.93;;;1.83;;
29838;SDS011;18669;53.356;-1.464;2022-08-06T15:30:12;7.47;;;1.60;;
29838;SDS011;18669;53.356;-1.464;2022-08-06T15:32:39;5.55;;;2.20;;
29838;SDS011;18669;53.356;-1.464;2022-08-06T15:35:06;2.72;;;1.95;;
29838;SDS011;18669;53.356;-1.464;2022-08-06T15:37:32;6.63;;;1.98;;
29838;SDS011;18669;53.356;-1.464;2022-08-06T15:39:59;4.30;;;1.75;;
29838;SDS011;18669;53.356;-1.464;2022-08-06T15:42:25;5.75;;;2.08;;
29838;SDS011;18669;53.356;-1.464;2022-08-06T15:44:51;3.88;;;1.63;;
29838;SDS011;18669;53.356;-1.464;2022-08-06T15:47:19;3.55;;;2.00;;
29838;SDS011;18669;53.356;-1.464;2022-08-06T15:49:48;4.30;;;1.55;;
29838;SDS011;18669;53.356;-1.464;2022-08-06T15:52:14;3.35;;;1.70;;
29838;SDS011;18669;53.356;-1.464;2022-08-06T15:54:40;3.92;;;1.63;;
29838;SDS011;18669;53.356;-1.464;2022-08-06T15:57:06;5.68;;;2.03;;
29838;SDS011;18669;53.356;-1.464;2022-08-06T15:59:32;5.80;;;2.13;;
29838;SDS011;18669;53.356;-1.464;2022-08-06T16:01:58;5.32;;;1.98;;
29838;SDS011;18669;53.356;-1.464;2022-08-06T16:04:25;4.25;;;2.05;;
29838;SDS011;18669;53.356;-1.464;2022-08-06T16:06:51;4.20;;;1.92;;
29838;SDS011;18669;53.356;-1.464;2022-08-06T16:09:19;6.70;;;1.88;;
29838;SDS011;18669;53.356;-1.464;2022-08-06T16:11:45;5.85;;;1.80;;
29838;SDS011;18669;53.356;-1.464;2022-08-06T16:14:11;6.15;;;1.83;;
29838;SDS011;18669;53.356;-1.464;2022-08-06T16:16:37;3.78;;;1.90;;
29838;SDS011;18669;53.356;-1.464;2022-08-06T16:19:04;4.47;;;2.05;;
29838;SDS011;18669;53.356;-1.464;2022-08-06T16:21:30;3.30;;;1.65;;